Time;durP1;ratioP1;P1;durP2;ratioP2;P2;SDS_P1;SDS_P2;PMS_P1;PMS_P2;Temp;Humidity;BMP_temperature;BMP_pressure;BME280_temperature;BME280_humidity;BME280_pressure;Samples;Min_cycle;Max_cycle;Signal;HPM_P1;HPM_P2
2022/04/16 00:01:10;;;;;;;21.15;14.15;;;9.00;99.90;;;;;;5072074;28;20041;-59
2022/04/16 00:03:36;;;;;;;22.02;14.27;;;8.90;99.90;;;;;;5071805;28;20036;-59
2022/04/16 00:06:02;;;;;;;19.17;14.10;;;8.80;99.90;;;;;;5071678;28;20420;-61
2022/04/16 00:08:29;;;;;;;17.23;12.70;;;8.70;99.90;;;;;;5071677;28;20039;-61
2022/04/16 00:10:55;;;;;;;22.98;14.82;;;8.70;99.90;;;;;;5071931;28;20044;-62
2022/04/16 00:13:22;;;;;;;23.67;15.35;;;8.70;99.90;;;;;;5071919;28;20041;-62
2022/04/16 00:15:49;;;;;;;19.33;14.23;;;8.60;99.90;;;;;;5070586;28;20086;-62
2022/04/16 00:18:16;;;;;;;20.88;14.73;;;8.50;99.90;;;;;;5071931;28;20036;-61
2022/04/16 00:20:43;;;;;;;20.92;14.00;;;8.50;99.90;;;;;;5071598;28;20382;-61
2022/04/16 00:23:09;;;;;;;21.02;15.30;;;8.40;99.90;;;;;;5071750;28;20076;-61
2022/04/16 00:25:35;;;;;;;18.13;13.63;;;8.40;99.90;;;;;;5071475;28;20080;-61
2022/04/16 00:28:02;;;;;;;20.10;14.60;;;8.40;99.90;;;;;;5071642;28;20094;-62
2022/04/16 00:30:28;;;;;;;19.15;14.63;;;8.40;99.90;;;;;;5071493;28;20120;-62
2022/04/16 00:32:55;;;;;;;25.70;15.25;;;8.30;99.90;;;;;;5071633;28;20119;-62
2022/04/16 00:35:24;;;;;;;22.58;15.25;;;8.20;99.90;;;;;;5071257;28;20033;-62
2022/04/16 00:37:51;;;;;;;20.52;15.35;;;8.20;99.90;;;;;;5071706;28;20068;-62
2022/04/16 00:40:16;;;;;;;20.75;15.85;;;8.20;99.90;;;;;;5072855;28;20048;-62
2022/04/16 00:42:45;;;;;;;22.20;15.57;;;8.10;99.90;;;;;;5075345;28;20056;-62
2022/04/16 00:45:13;;;;;;;20.80;15.43;;;8.10;99.90;;;;;;5075469;28;20051;-62
2022/04/16 00:47:39;;;;;;;20.13;15.63;;;8.00;99.90;;;;;;5075295;28;20398;-62
2022/04/16 00:50:10;;;;;;;19.95;14.73;;;8.00;99.90;;;;;;5075543;28;20425;-62
2022/04/16 00:52:37;;;;;;;19.38;14.35;;;8.00;99.90;;;;;;5075246;28;20497;-62
2022/04/16 00:55:05;;;;;;;22.88;15.85;;;8.00;99.90;;;;;;5075113;28;20483;-61
2022/04/16 00:57:30;;;;;;;22.67;16.25;;;8.00;99.90;;;;;;5075408;28;20538;-62
2022/04/16 00:59:56;;;;;;;25.33;15.63;;;8.00;99.90;;;;;;5075141;28;20119;-62
2022/04/16 01:02:22;;;;;;;22.80;16.48;;;8.00;99.90;;;;;;5074903;28;20123;-62
2022/04/16 01:04:48;;;;;;;19.52;14.10;;;8.10;99.90;;;;;;5074880;28;20449;-62
2022/04/16 01:07:20;;;;;;;22.15;16.17;;;8.10;99.90;;;;;;5073834;28;20052;-61
2022/04/16 01:09:46;;;;;;;20.63;14.68;;;8.00;99.90;;;;;;5075216;28;20036;-61
2022/04/16 01:12:11;;;;;;;23.75;16.67;;;8.00;99.90;;;;;;5074788;28;20048;-61
2022/04/16 01:14:38;;;;;;;25.50;16.35;;;7.90;99.90;;;;;;5074741;28;20391;-62
2022/04/16 01:17:04;;;;;;;21.15;15.43;;;7.90;99.90;;;;;;5074690;28;20048;-61
2022/04/16 01:19:30;;;;;;;21.83;16.40;;;7.90;99.90;;;;;;5074634;28;20479;-61
2022/04/16 01:21:58;;;;;;;22.38;15.15;;;7.90;99.90;;;;;;5075994;28;20463;-61
2022/04/16 01:24:24;;;;;;;23.25;15.35;;;7.90;99.90;;;;;;5074735;28;20040;-60
2022/04/16 01:26:51;;;;;;;20.67;15.75;;;7.90;99.90;;;;;;5074808;28;20506;-60
2022/04/16 01:29:17;;;;;;;20.63;16.08;;;7.80;99.90;;;;;;5074570;28;20047;-61
2022/04/16 01:31:43;;;;;;;21.77;16.13;;;7.80;99.90;;;;;;5074341;28;20123;-60
2022/04/16 01:34:09;;;;;;;23.08;16.65;;;7.80;99.90;;;;;;5074627;28;20174;-60
2022/04/16 01:36:34;;;;;;;24.38;17.00;;;7.70;99.90;;;;;;5074591;28;20406;-60
2022/04/16 01:39:01;;;;;;;30.33;17.85;;;7.70;99.90;;;;;;5074385;28;20418;-60
2022/04/16 01:41:30;;;;;;;23.40;17.67;;;7.60;99.90;;;;;;5074327;28;20467;-60
2022/04/16 01:43:56;;;;;;;27.73;16.70;;;7.60;99.90;;;;;;5074236;28;20049;-60
2022/04/16 01:46:22;;;;;;;25.52;17.95;;;7.60;99.90;;;;;;5074313;28;20042;-61
2022/04/16 01:48:53;;;;;;;26.48;18.50;;;7.60;99.90;;;;;;5074323;28;20486;-60
2022/04/16 01:51:20;;;;;;;27.10;18.80;;;7.60;99.90;;;;;;5074030;28;20131;-61
2022/04/16 01:53:45;;;;;;;21.65;16.35;;;7.60;99.90;;;;;;5074470;28;20079;-61
2022/04/16 01:56:11;;;;;;;26.58;18.65;;;7.50;99.90;;;;;;5074114;28;20068;-60
2022/04/16 01:58:38;;;;;;;30.92;18.70;;;7.50;99.90;;;;;;5073904;28;20111;-60
2022/04/16 02:01:05;;;;;;;25.20;17.60;;;7.50;99.90;;;;;;5074254;28;20066;-60
2022/04/16 02:03:31;;;;;;;26.67;19.33;;;7.50;99.90;;;;;;5073943;28;20444;-61
2022/04/16 02:05:57;;;;;;;28.40;20.70;;;7.50;99.90;;;;;;5074076;28;20403;-61
2022/04/16 02:08:23;;;;;;;31.00;20.63;;;7.40;99.90;;;;;;5074006;28;20043;-61
2022/04/16 02:10:49;;;;;;;31.85;21.70;;;7.50;99.90;;;;;;5074069;28;20390;-61
2022/04/16 02:13:15;;;;;;;30.67;20.17;;;7.50;99.90;;;;;;5073847;28;20040;-60
2022/04/16 02:15:40;;;;;;;33.53;22.42;;;7.40;99.90;;;;;;5073576;28;20098;-61
2022/04/16 02:18:06;;;;;;;26.77;20.48;;;7.40;99.90;;;;;;5073839;28;20072;-60
2022/04/16 02:20:32;;;;;;;37.97;23.17;;;7.40;99.90;;;;;;5073872;28;20111;-61
2022/04/16 02:22:57;;;;;;;35.33;23.20;;;7.40;99.90;;;;;;5073755;28;20064;-61
2022/04/16 02:25:26;;;;;;;30.17;21.17;;;7.40;99.90;;;;;;5073665;28;20369;-60
2022/04/16 02:27:52;;;;;;;30.02;22.35;;;7.30;99.90;;;;;;5072329;28;20044;-61
2022/04/16 02:30:18;;;;;;;30.15;20.85;;;7.40;99.90;;;;;;5073529;28;20051;-61
2022/04/16 02:32:46;;;;;;;31.95;23.13;;;7.40;99.90;;;;;;5073636;28;20541;-61
2022/04/16 02:35:14;;;;;;;36.90;22.70;;;7.40;99.90;;;;;;5073160;28;20043;-61
2022/04/16 02:37:40;;;;;;;29.45;20.52;;;7.40;99.90;;;;;;5073242;28;20033;-61
2022/04/16 02:40:06;;;;;;;34.28;23.38;;;7.40;99.90;;;;;;5072246;28;20052;-61
2022/04/16 02:42:36;;;;;;;28.15;20.48;;;7.50;99.90;;;;;;5073584;28;20227;-61
2022/04/16 02:47:48;;;;;;;30.92;20.42;;;7.50;99.90;;;;;;5073150;28;20041;-61
2022/04/16 02:50:14;;;;;;;31.67;21.33;;;7.50;99.90;;;;;;5073192;28;20538;-61
2022/04/16 02:52:41;;;;;;;27.63;19.88;;;7.60;99.90;;;;;;5073263;28;20040;-61
2022/04/16 02:55:07;;;;;;;26.02;19.33;;;7.60;99.90;;;;;;5073022;28;20398;-61
2022/04/16 02:57:33;;;;;;;24.42;19.33;;;7.70;99.90;;;;;;5072786;28;20085;-61
2022/04/16 02:59:59;;;;;;;25.23;20.15;;;7.80;99.90;;;;;;5072945;28;20036;-61
2022/04/16 03:02:25;;;;;;;26.95;19.20;;;7.90;99.90;;;;;;5072358;28;20040;-61
2022/04/16 03:04:51;;;;;;;26.77;21.08;;;7.90;99.90;;;;;;5072608;28;20035;-61
2022/04/16 03:07:17;;;;;;;25.90;19.38;;;8.00;99.90;;;;;;5072682;28;20399;-61
2022/04/16 03:09:44;;;;;;;26.52;20.30;;;8.00;99.90;;;;;;5072433;28;20033;-61
2022/04/16 03:12:10;;;;;;;29.10;20.08;;;8.00;99.90;;;;;;5072766;28;20123;-61
2022/04/16 03:17:32;;;;;;;26.98;21.20;;;8.10;99.90;;;;;;5072471;28;20070;-61
2022/04/16 03:20:04;;;;;;;33.20;23.17;;;8.10;99.90;;;;;;5072340;28;20044;-61
2022/04/16 03:22:32;;;;;;;31.42;22.65;;;8.20;99.90;;;;;;5072562;28;20036;-61
2022/04/16 03:24:58;;;;;;;27.90;22.52;;;8.20;99.90;;;;;;5072479;28;20124;-61
2022/04/16 03:27:23;;;;;;;29.50;22.67;;;8.20;99.90;;;;;;5072330;28;20399;-61
2022/04/16 03:29:49;;;;;;;30.80;23.65;;;8.20;99.90;;;;;;5072581;28;20048;-61
2022/04/16 03:32:15;;;;;;;31.67;23.08;;;8.20;99.90;;;;;;5072191;28;20044;-60
2022/04/16 03:34:41;;;;;;;29.38;22.75;;;8.30;99.90;;;;;;5072390;28;20044;-61
2022/04/16 03:37:06;;;;;;;32.97;23.77;;;8.20;99.90;;;;;;5072136;28;20372;-61
2022/04/16 03:39:32;;;;;;;35.35;25.75;;;8.30;99.90;;;;;;5072216;28;20074;-61
2022/04/16 03:41:58;;;;;;;29.98;23.38;;;8.30;99.90;;;;;;5072071;28;20044;-61
2022/04/16 03:44:23;;;;;;;34.58;25.60;;;8.30;99.90;;;;;;5071886;28;20060;-61
2022/04/16 03:46:49;;;;;;;34.13;24.25;;;8.20;99.90;;;;;;5071980;28;20048;-61
2022/04/16 03:49:15;;;;;;;30.85;23.85;;;8.20;99.90;;;;;;5071844;28;20048;-61
2022/04/16 03:51:41;;;;;;;32.30;25.20;;;8.30;99.90;;;;;;5070980;28;20116;-61
2022/04/16 04:02:20;;;;;;;33.88;26.65;;;8.20;99.90;;;;;;5072424;28;20044;-61
2022/04/16 04:04:46;;;;;;;36.85;26.65;;;8.10;99.90;;;;;;5071928;28;20515;-60
2022/04/16 04:07:12;;;;;;;38.55;27.00;;;8.10;99.90;;;;;;5070717;28;20413;-61
2022/04/16 04:09:38;;;;;;;36.35;28.23;;;8.10;99.90;;;;;;5071886;28;20036;-61
2022/04/16 04:12:11;;;;;;;40.50;28.77;;;8.10;99.90;;;;;;5071588;28;20429;-61
2022/04/16 04:14:46;;;;;;;38.55;28.42;;;8.10;99.90;;;;;;5071447;28;20546;-61
2022/04/16 04:17:13;;;;;;;39.55;28.67;;;8.10;99.90;;;;;;5071659;28;20048;-61
2022/04/16 04:19:41;;;;;;;39.95;27.58;;;8.10;99.90;;;;;;5071518;28;20046;-61
2022/04/16 04:22:10;;;;;;;37.53;28.10;;;8.10;99.90;;;;;;5071571;28;20126;-61
2022/04/16 04:24:37;;;;;;;43.90;30.50;;;8.10;99.90;;;;;;5071519;28;20036;-61
2022/04/16 04:27:03;;;;;;;38.55;30.00;;;8.10;99.90;;;;;;5071545;28;20475;-61
2022/04/16 04:29:30;;;;;;;41.60;30.02;;;8.10;99.90;;;;;;5071762;28;20359;-60
2022/04/16 04:31:56;;;;;;;44.55;30.80;;;8.10;99.90;;;;;;5071623;28;20463;-62
2022/04/16 04:34:22;;;;;;;42.33;29.20;;;8.10;99.90;;;;;;5071841;28;20039;-59
2022/04/16 04:36:48;;;;;;;42.30;30.13;;;8.00;99.90;;;;;;5071383;28;20036;-60
2022/04/16 04:39:14;;;;;;;41.50;30.42;;;8.00;99.90;;;;;;5071347;28;20032;-59
2022/04/16 04:41:42;;;;;;;37.65;29.45;;;8.00;99.90;;;;;;5071618;28;20037;-60
2022/04/16 04:44:13;;;;;;;37.08;29.50;;;7.90;99.90;;;;;;5071145;28;20090;-59
2022/04/16 04:46:40;;;;;;;39.97;29.42;;;7.90;99.90;;;;;;5071498;28;20051;-59
2022/04/16 04:49:09;;;;;;;38.35;28.52;;;7.90;99.90;;;;;;5071261;28;20036;-59
2022/04/16 04:51:39;;;;;;;38.13;28.40;;;7.90;99.90;;;;;;5071518;28;20045;-59
2022/04/16 04:54:05;;;;;;;38.08;28.23;;;7.90;99.90;;;;;;5071383;28;20056;-59
2022/04/16 04:56:31;;;;;;;41.80;30.55;;;7.90;99.90;;;;;;5071079;28;20040;-59
2022/04/16 04:58:57;;;;;;;40.85;29.90;;;7.90;99.90;;;;;;5071354;28;20388;-59
2022/04/16 05:01:23;;;;;;;41.10;29.13;;;7.90;99.90;;;;;;5071257;28;20102;-60
2022/04/16 05:03:49;;;;;;;40.15;29.85;;;7.90;99.90;;;;;;5071207;28;20047;-60
2022/04/16 05:06:14;;;;;;;41.83;30.48;;;7.90;99.90;;;;;;5071131;28;20398;-60
2022/04/16 05:08:40;;;;;;;40.95;29.38;;;7.90;99.90;;;;;;5071376;28;20037;-59
2022/04/16 05:11:06;;;;;;;39.90;30.40;;;7.90;99.90;;;;;;5071340;28;20036;-59
2022/04/16 05:13:31;;;;;;;39.42;29.00;;;7.90;99.90;;;;;;5071549;28;20487;-60
2022/04/16 05:15:57;;;;;;;43.25;31.13;;;7.90;99.90;;;;;;5069779;28;20040;-59
2022/04/16 05:18:23;;;;;;;39.22;28.15;;;8.00;99.90;;;;;;5071184;28;20029;-60
2022/04/16 05:20:48;;;;;;;39.88;28.10;;;7.90;99.90;;;;;;5071100;28;20502;-60
2022/04/16 05:23:14;;;;;;;41.90;28.75;;;8.00;99.90;;;;;;5071152;28;20033;-60
2022/04/16 05:25:39;;;;;;;37.85;28.33;;;8.00;99.90;;;;;;5071094;28;20039;-60
2022/04/16 05:28:05;;;;;;;36.15;26.20;;;7.90;99.90;;;;;;5074909;28;20044;-60
2022/04/16 05:30:38;;;;;;;37.10;27.60;;;8.00;99.90;;;;;;5074810;28;20036;-59
2022/04/16 05:33:16;;;;;;;36.67;26.65;;;8.00;99.90;;;;;;5073399;28;20044;-60
2022/04/16 05:35:42;;;;;;;34.95;25.73;;;8.00;99.90;;;;;;5074557;28;20043;-60
2022/04/16 05:38:08;;;;;;;32.38;23.95;;;8.00;99.90;;;;;;5074257;28;20482;-59
2022/04/16 05:40:33;;;;;;;29.67;22.90;;;8.00;99.90;;;;;;5074439;28;20036;-60
2022/04/16 05:42:59;;;;;;;27.55;21.60;;;8.00;99.90;;;;;;5074275;28;20380;-60
2022/04/16 05:45:25;;;;;;;31.67;22.17;;;8.00;99.90;;;;;;5074284;28;20045;-60
2022/04/16 05:47:50;;;;;;;26.95;21.13;;;8.10;99.90;;;;;;5074038;28;20119;-60
2022/04/16 05:50:16;;;;;;;29.45;21.52;;;8.10;99.90;;;;;;5073983;28;20040;-60
2022/04/16 05:52:41;;;;;;;28.50;20.13;;;8.10;99.90;;;;;;5074377;28;20033;-60
2022/04/16 05:55:09;;;;;;;27.15;20.15;;;8.10;99.90;;;;;;5072960;28;20109;-60
2022/04/16 05:57:35;;;;;;;23.08;18.02;;;8.20;99.90;;;;;;5073930;28;20422;-60
2022/04/16 06:00:00;;;;;;;27.38;18.45;;;8.20;99.90;;;;;;5073978;28;20041;-60
2022/04/16 06:02:26;;;;;;;23.85;17.05;;;8.10;99.90;;;;;;5073869;28;20029;-60
2022/04/16 06:04:52;;;;;;;24.90;18.42;;;8.20;99.90;;;;;;5074079;28;20494;-60
2022/04/16 06:07:17;;;;;;;26.60;17.65;;;8.20;99.90;;;;;;5074173;28;20471;-60
2022/04/16 06:09:43;;;;;;;25.17;18.45;;;8.20;99.90;;;;;;5074053;28;20037;-60
2022/04/16 06:12:09;;;;;;;27.92;18.95;;;8.30;99.90;;;;;;5072513;28;20379;-59
2022/04/16 06:14:35;;;;;;;27.55;18.73;;;8.20;99.90;;;;;;5073757;28;20044;-60
2022/04/16 06:17:01;;;;;;;23.60;17.65;;;8.30;99.90;;;;;;5073617;28;20138;-59
2022/04/16 06:19:27;;;;;;;24.65;18.15;;;8.20;99.90;;;;;;5073490;28;20040;-61
2022/04/16 06:21:53;;;;;;;25.48;17.30;;;8.30;99.90;;;;;;5073805;28;20036;-60
2022/04/16 06:24:19;;;;;;;24.15;17.23;;;8.20;99.90;;;;;;5073376;28;20560;-61
2022/04/16 06:26:47;;;;;;;24.08;17.27;;;8.20;99.90;;;;;;5072168;28;20049;-61
2022/04/16 06:29:13;;;;;;;25.58;16.95;;;8.20;99.90;;;;;;5072316;28;20463;-61
2022/04/16 06:31:39;;;;;;;23.85;17.73;;;8.20;99.90;;;;;;5073281;28;20033;-61
2022/04/16 06:34:04;;;;;;;27.48;18.52;;;8.30;99.90;;;;;;5073304;28;20044;-60
2022/04/16 06:36:30;;;;;;;24.02;17.23;;;8.40;99.90;;;;;;5073483;28;20045;-61
2022/04/16 06:38:55;;;;;;;26.30;18.25;;;8.60;99.90;;;;;;5072233;28;20033;-61
2022/04/16 06:41:21;;;;;;;24.52;16.42;;;8.70;99.90;;;;;;5073256;28;20089;-61
2022/04/16 06:43:47;;;;;;;21.10;16.05;;;8.80;99.90;;;;;;5072978;28;20048;-60
2022/04/16 06:46:12;;;;;;;21.88;16.05;;;9.10;99.90;;;;;;5072865;28;20383;-61
2022/04/16 06:48:38;;;;;;;22.77;15.75;;;9.40;99.90;;;;;;5073378;28;20048;-61
2022/04/16 06:51:04;;;;;;;20.83;14.65;;;9.60;99.90;;;;;;5073040;28;20495;-61
2022/04/16 06:53:30;;;;;;;19.02;13.93;;;9.50;99.90;;;;;;5073086;28;20083;-62
2022/04/16 06:56:00;;;;;;;18.85;13.95;;;9.60;99.90;;;;;;5072946;28;20457;-61
2022/04/16 06:58:29;;;;;;;17.88;13.38;;;9.80;99.90;;;;;;5072812;28;20094;-61
2022/04/16 07:00:57;;;;;;;20.17;14.13;;;10.00;99.90;;;;;;5072775;28;20095;-61
2022/04/16 07:03:23;;;;;;;19.17;14.05;;;10.20;99.90;;;;;;5072677;28;20394;-61
2022/04/16 07:05:49;;;;;;;20.02;14.25;;;10.40;99.90;;;;;;5072814;28;20033;-61
2022/04/16 07:08:15;;;;;;;19.38;14.02;;;10.60;99.90;;;;;;5072731;28;20399;-61
2022/04/16 07:10:40;;;;;;;19.55;12.70;;;10.80;99.90;;;;;;5072587;28;20486;-61
2022/04/16 07:13:06;;;;;;;18.55;13.63;;;10.90;99.90;;;;;;5072708;28;20036;-61
2022/04/16 07:15:33;;;;;;;16.98;11.57;;;11.00;99.90;;;;;;5072721;28;20045;-61
2022/04/16 07:17:59;;;;;;;16.50;11.20;;;11.10;99.90;;;;;;5072791;28;20481;-61
2022/04/16 07:20:25;;;;;;;17.85;11.07;;;11.30;99.90;;;;;;5072717;28;20122;-61
2022/04/16 07:22:50;;;;;;;15.90;10.93;;;11.50;99.90;;;;;;5072160;28;20124;-61
2022/04/16 07:25:16;;;;;;;15.98;10.48;;;11.50;99.90;;;;;;5072386;28;20043;-61
2022/04/16 07:27:43;;;;;;;15.13;9.20;;;11.70;99.90;;;;;;5072165;28;20119;-61
2022/04/16 07:30:10;;;;;;;15.90;9.55;;;11.80;99.90;;;;;;5072202;28;20089;-61
2022/04/16 07:32:35;;;;;;;14.27;9.73;;;11.90;99.90;;;;;;5072239;28;20093;-61
2022/04/16 07:35:01;;;;;;;13.73;9.45;;;11.90;99.90;;;;;;5072287;28;20123;-61
2022/04/16 07:37:26;;;;;;;13.23;9.90;;;12.00;99.90;;;;;;5071998;28;20102;-62
2022/04/16 07:39:52;;;;;;;16.77;11.05;;;12.40;99.90;;;;;;5070900;28;20037;-62
2022/04/16 07:42:18;;;;;;;12.85;8.65;;;12.60;99.90;;;;;;5071865;28;20032;-61
2022/04/16 07:44:44;;;;;;;10.93;8.27;;;12.90;99.90;;;;;;5071869;28;20407;-61
2022/04/16 07:47:09;;;;;;;17.17;10.20;;;13.20;99.90;;;;;;5072138;28;20154;-61
2022/04/16 07:49:35;;;;;;;12.85;9.02;;;13.50;99.90;;;;;;5070512;28;20051;-61
2022/04/16 07:52:00;;;;;;;17.02;10.15;;;13.50;99.90;;;;;;5072034;28;20073;-60
2022/04/16 07:54:26;;;;;;;11.13;8.18;;;13.50;99.90;;;;;;5071976;28;20032;-62
2022/04/16 07:56:51;;;;;;;13.13;8.85;;;13.50;99.90;;;;;;5071860;28;20483;-61
2022/04/16 07:59:17;;;;;;;11.13;7.78;;;13.60;99.90;;;;;;5072056;28;20044;-61
2022/04/16 08:01:43;;;;;;;10.52;7.68;;;13.40;99.90;;;;;;5071863;28;20116;-62
2022/04/16 08:04:08;;;;;;;12.13;7.15;;;13.70;99.90;;;;;;5071905;28;20039;-61
2022/04/16 08:06:34;;;;;;;9.95;7.70;;;13.90;99.90;;;;;;5071909;28;20136;-61
2022/04/16 08:09:03;;;;;;;11.85;8.25;;;14.20;99.90;;;;;;5071722;28;20123;-61
2022/04/16 08:11:33;;;;;;;11.50;8.07;;;13.80;99.90;;;;;;5071714;28;20044;-61
2022/04/16 08:13:59;;;;;;;12.18;8.27;;;13.90;99.90;;;;;;5071890;28;20163;-62
2022/04/16 08:16:25;;;;;;;12.25;8.10;;;13.80;99.90;;;;;;5072038;28;20129;-59
2022/04/16 08:18:50;;;;;;;12.50;8.45;;;13.80;99.90;;;;;;5071701;28;20459;-59
2022/04/16 08:21:16;;;;;;;8.57;5.85;;;13.50;99.90;;;;;;5071627;28;20098;-59
2022/04/16 08:23:55;;;;;;;10.60;7.13;;;13.70;99.90;;;;;;5071667;28;20039;-59
2022/04/16 08:26:24;;;;;;;10.23;6.80;;;13.80;99.90;;;;;;5071528;28;20052;-60
2022/04/16 08:28:50;;;;;;;;;;;13.80;99.90;;;;;;5072056;28;20123;-60
2022/04/16 08:31:16;;;;;;;7.80;5.53;;;13.90;99.90;;;;;;5071535;28;20003;-59
2022/04/16 08:33:41;;;;;;;6.60;4.53;;;14.40;99.90;;;;;;5071553;28;20459;-61
2022/04/16 08:36:07;;;;;;;5.25;4.13;;;14.60;99.90;;;;;;5071393;28;20401;-59
2022/04/16 08:38:32;;;;;;;6.55;4.40;;;14.80;99.90;;;;;;5071429;28;20028;-62
2022/04/16 08:41:00;;;;;;;7.95;3.95;;;14.70;99.90;;;;;;5071134;28;20448;-61
2022/04/16 08:43:26;;;;;;;7.13;4.03;;;14.70;99.90;;;;;;5071186;28;20546;-62
2022/04/16 08:45:55;;;;;;;5.38;3.88;;;14.50;99.90;;;;;;5071516;28;20120;-61
2022/04/16 08:48:20;;;;;;;6.63;3.47;;;14.90;99.90;;;;;;5071447;28;20070;-61
2022/04/16 08:50:47;;;;;;;6.03;3.03;;;15.10;99.90;;;;;;5071376;28;20436;-61
2022/04/16 08:53:13;;;;;;;8.23;3.85;;;15.20;99.90;;;;;;5071800;28;20037;-61
2022/04/16 08:55:39;;;;;;;4.28;3.13;;;15.10;98.80;;;;;;5071159;28;20040;-61
2022/04/16 08:58:05;;;;;;;4.05;2.80;;;15.50;99.90;;;;;;5071701;28;20466;-60
2022/04/16 09:00:31;;;;;;;4.05;2.53;;;15.30;99.20;;;;;;5071773;28;20060;-61
2022/04/16 09:03:01;;;;;;;3.22;2.55;;;15.70;99.20;;;;;;5075132;28;20066;-60
2022/04/16 09:05:28;;;;;;;3.83;2.20;;;15.50;98.90;;;;;;5075342;28;20466;-61
2022/04/16 09:07:58;;;;;;;3.80;2.58;;;15.50;97.80;;;;;;5074816;28;20426;-61
2022/04/16 09:10:28;;;;;;;4.78;3.00;;;15.70;98.10;;;;;;5075208;28;20041;-60
2022/04/16 09:13:01;;;;;;;4.88;2.67;;;16.00;99.00;;;;;;5075004;28;20048;-61
2022/04/16 09:15:28;;;;;;;2.85;2.30;;;15.90;98.00;;;;;;5074924;28;20048;-61
2022/04/16 09:18:07;;;;;;;4.70;2.10;;;15.80;97.20;;;;;;5074637;28;20041;-60
2022/04/16 09:20:36;;;;;;;2.92;1.90;;;15.60;96.30;;;;;;5074832;28;20039;-62
2022/04/16 09:23:23;;;;;;;2.83;1.50;;;15.70;96.20;;;;;;5074882;28;20040;-61
2022/04/16 09:25:49;;;;;;;1.88;1.30;;;16.30;97.20;;;;;;5074539;28;20471;-61
2022/04/16 09:28:20;;;;;;;3.00;1.50;;;16.10;95.10;;;;;;5074674;28;20036;-60
2022/04/16 09:30:56;;;;;;;1.25;1.00;;;16.10;94.90;;;;;;5074312;28;20368;-61
2022/04/16 09:33:22;;;;;;;3.50;1.10;;;16.50;94.80;;;;;;5090250;28;20047;-59
2022/04/16 09:35:52;;;;;;;1.73;1.20;;;16.60;93.70;;;;;;5094366;28;20525;-58
2022/04/16 09:38:17;;;;;;;1.20;1.00;;;16.80;93.00;;;;;;5094794;28;20374;-60
2022/04/16 09:40:47;;;;;;;3.47;1.17;;;16.40;92.80;;;;;;5094523;28;20035;-59
2022/04/16 09:43:12;;;;;;;4.82;1.42;;;16.40;92.40;;;;;;5094618;28;20052;-61
2022/04/16 09:45:40;;;;;;;2.83;1.30;;;16.30;91.60;;;;;;5094580;28;20138;-60
2022/04/16 09:48:11;;;;;;;3.45;1.25;;;16.10;91.10;;;;;;5094428;28;20093;-60
2022/04/16 09:50:38;;;;;;;1.73;1.20;;;16.40;92.50;;;;;;5094448;28;20044;-60
2022/04/16 09:53:06;;;;;;;1.40;1.25;;;16.30;93.20;;;;;;5094478;28;20036;-60
2022/04/16 09:55:31;;;;;;;2.58;1.02;;;16.20;92.40;;;;;;5094396;28;20064;-60
2022/04/16 09:57:59;;;;;;;2.55;1.08;;;16.30;93.00;;;;;;5094133;28;20076;-59
2022/04/16 10:00:26;;;;;;;2.63;1.20;;;16.40;93.10;;;;;;5094033;28;20078;-59
2022/04/16 10:02:53;;;;;;;2.10;1.20;;;16.10;92.70;;;;;;5094280;28;20048;-59
2022/04/16 10:05:20;;;;;;;2.10;1.33;;;16.00;91.90;;;;;;5093871;28;20047;-60
2022/04/16 10:07:47;;;;;;;1.73;1.20;;;16.30;93.20;;;;;;5094030;28;20039;-60
2022/04/16 10:10:25;;;;;;;2.03;1.00;;;16.30;93.20;;;;;;5094127;28;20046;-60
2022/04/16 10:13:04;;;;;;;2.60;1.10;;;16.50;93.00;;;;;;5093846;28;20459;-60
2022/04/16 10:16:02;;;;;;;1.73;1.20;;;16.50;92.00;;;;;;5094278;28;20486;-60
2022/04/16 10:18:28;;;;;;;1.58;1.20;;;16.60;91.60;;;;;;5051713;28;20092;-60
2022/04/16 10:20:58;;;;;;;2.35;1.33;;;16.60;91.80;;;;;;5050911;28;20088;-60
2022/04/16 10:23:44;;;;;;;1.63;1.20;;;16.70;91.10;;;;;;5051584;28;20394;-59
2022/04/16 10:26:14;;;;;;;1.30;1.00;;;16.50;91.00;;;;;;5051705;28;20044;-60
2022/04/16 10:28:53;;;;;;;1.73;1.10;;;16.60;91.10;;;;;;5051658;28;20135;-60
2022/04/16 10:31:25;;;;;;;5.03;1.77;;;17.00;92.00;;;;;;5051440;28;20044;-60
2022/04/16 10:34:01;;;;;;;3.58;1.38;;;16.80;91.60;;;;;;5015079;28;20033;-60
2022/04/16 10:36:32;;;;;;;2.40;1.38;;;16.50;91.00;;;;;;5043588;28;20052;-61
2022/04/16 10:38:59;;;;;;;1.20;1.00;;;16.50;92.30;;;;;;5051424;28;20716;-60
2022/04/16 10:41:26;;;;;;;2.05;0.93;;;16.60;90.90;;;;;;5049453;28;20048;-60
2022/04/16 10:43:59;;;;;;;4.18;1.13;;;16.50;87.90;;;;;;5048288;28;20096;-61
2022/04/16 10:46:46;;;;;;;1.10;0.70;;;16.60;90.90;;;;;;5054128;28;20040;-60
2022/04/16 10:49:13;;;;;;;2.25;0.90;;;16.90;90.60;;;;;;5050983;28;20093;-60
2022/04/16 10:51:38;;;;;;;1.00;0.90;;;16.90;90.40;;;;;;5051175;28;20120;-59
2022/04/16 10:54:08;;;;;;;0.90;0.80;;;17.10;90.90;;;;;;5050617;28;20187;-60
2022/04/16 10:56:39;;;;;;;0.98;0.70;;;16.90;88.30;;;;;;5093426;28;20347;-60
2022/04/16 10:59:05;;;;;;;2.92;0.70;;;16.90;88.50;;;;;;5075160;28;20040;-60
2022/04/16 11:01:31;;;;;;;1.63;0.65;;;16.90;86.50;;;;;;5072906;28;20043;-60
2022/04/16 11:03:57;;;;;;;1.85;0.70;;;17.00;85.00;;;;;;5072963;28;20036;-58
2022/04/16 11:06:34;;;;;;;2.88;0.70;;;16.60;82.60;;;;;;5073126;28;20041;-58
2022/04/16 11:09:00;;;;;;;1.45;0.85;;;16.70;83.40;;;;;;5073040;28;20036;-58
2022/04/16 11:11:25;;;;;;;1.60;0.70;;;16.90;83.60;;;;;;5073113;28;20835;-58
2022/04/16 11:13:52;;;;;;;1.40;0.90;;;16.80;81.10;;;;;;5072179;28;20037;-59
2022/04/16 11:16:23;;;;;;;0.98;0.70;;;16.80;83.60;;;;;;5084902;28;20420;-58
2022/04/16 11:18:49;;;;;;;1.48;0.60;;;16.80;83.10;;;;;;5090876;28;20034;-59
2022/04/16 11:21:18;;;;;;;1.13;0.65;;;16.90;80.80;;;;;;5090597;28;20032;-59
2022/04/16 11:23:43;;;;;;;0.90;0.52;;;16.80;77.50;;;;;;5091755;28;20036;-59
2022/04/16 11:34:29;;;;;;;1.27;0.50;;;16.80;78.80;;;;;;5093627;28;20044;-60
2022/04/16 11:36:55;;;;;;;1.02;0.70;;;16.70;73.40;;;;;;5092249;28;20048;-60
2022/04/16 11:39:28;;;;;;;1.17;0.60;;;16.80;76.20;;;;;;5092202;28;20050;-60
2022/04/16 11:41:55;;;;;;;1.40;0.60;;;16.90;76.20;;;;;;5092676;28;20802;-58
2022/04/16 11:44:45;;;;;;;1.52;0.80;;;17.00;78.90;;;;;;5084310;28;20158;-58
2022/04/16 11:47:14;;;;;;;3.20;0.80;;;17.60;77.60;;;;;;5090335;28;20553;-57
2022/04/16 11:49:59;;;;;;;3.15;0.70;;;17.50;75.90;;;;;;5086855;28;20089;-57
2022/04/16 11:52:33;;;;;;;0.98;0.75;;;17.90;78.80;;;;;;5091007;28;20074;-58
2022/04/16 11:55:16;;;;;;;0.77;0.70;;;18.20;77.50;;;;;;5091033;28;20043;-58
2022/04/16 11:57:53;;;;;;;1.75;0.80;;;18.50;75.30;;;;;;5090354;28;20037;-61
2022/04/16 12:00:21;;;;;;;1.90;0.60;;;18.00;76.10;;;;;;5091452;28;20024;-60
2022/04/16 12:02:47;;;;;;;2.67;0.80;;;18.50;77.80;;;;;;5091812;28;20028;-60
2022/04/16 12:05:14;;;;;;;1.73;0.80;;;19.00;76.20;;;;;;5091739;28;20032;-60
2022/04/16 12:07:46;;;;;;;0.98;0.52;;;19.00;75.90;;;;;;5089037;28;20047;-57
2022/04/16 12:10:14;;;;;;;1.35;0.70;;;18.70;74.60;;;;;;5090814;28;20039;-57
2022/04/16 12:12:48;;;;;;;1.48;0.90;;;18.80;75.90;;;;;;5090698;28;20490;-57
2022/04/16 12:15:24;;;;;;;1.83;0.63;;;19.40;74.70;;;;;;5092268;28;20050;-60
2022/04/16 12:17:57;;;;;;;3.30;0.80;;;19.60;73.00;;;;;;5079122;28;20476;-60
2022/04/16 12:20:24;;;;;;;3.65;1.00;;;19.40;73.80;;;;;;5092690;28;20040;-60
2022/04/16 12:23:00;;;;;;;5.45;0.90;;;19.50;70.50;;;;;;5086113;28;20966;-60
2022/04/16 12:25:26;;;;;;;2.60;1.17;;;18.90;70.20;;;;;;5086236;28;20032;-57
2022/04/16 12:27:57;;;;;;;2.17;0.75;;;18.70;70.50;;;;;;5091451;28;20036;-57
2022/04/16 12:30:33;;;;;;;0.82;0.70;;;19.20;71.60;;;;;;5091380;28;20485;-57
2022/04/16 12:33:06;;;;;;;1.10;0.70;;;19.30;71.40;;;;;;5083913;28;20040;-59
2022/04/16 12:35:34;;;;;;;0.98;0.63;;;19.70;72.00;;;;;;5090210;28;20085;-60
2022/04/16 12:38:00;;;;;;;1.55;0.70;;;19.10;68.10;;;;;;5095541;28;20478;-57
2022/04/16 12:40:28;;;;;;;0.60;0.50;;;19.10;71.80;;;;;;5096209;28;20043;-60
2022/04/16 12:42:56;;;;;;;1.88;0.90;;;20.10;74.60;;;;;;5096020;28;20123;-60
2022/04/16 12:45:23;;;;;;;4.28;1.10;;;19.50;71.10;;;;;;5094404;28;20040;-60
2022/04/16 12:47:50;;;;;;;1.85;0.82;;;18.50;69.50;;;;;;5091937;28;20091;-57
2022/04/16 12:50:15;;;;;;;1.35;0.80;;;18.90;70.00;;;;;;5093556;28;20074;-60
2022/04/16 12:52:42;;;;;;;3.95;1.05;;;18.70;69.30;;;;;;5095750;28;20072;-60
2022/04/16 12:55:09;;;;;;;1.60;0.80;;;18.90;70.60;;;;;;5085935;28;20380;-60
2022/04/16 12:57:34;;;;;;;3.45;1.20;;;18.70;70.50;;;;;;5095678;28;20044;-59
2022/04/16 13:00:00;;;;;;;0.95;0.70;;;18.80;71.40;;;;;;5095269;28;20451;-57
2022/04/16 13:02:26;;;;;;;1.33;0.82;;;18.70;69.10;;;;;;5094459;28;20024;-60
2022/04/16 13:04:52;;;;;;;3.47;1.17;;;18.60;68.10;;;;;;5093031;28;20394;-57